Time;durP1;ratioP1;P1;durP2;ratioP2;P2;SDS_P1;SDS_P2;PMS_P1;PMS_P2;Temp;Humidity;BMP_temperature;BMP_pressure;BME280_temperature;BME280_humidity;BME280_pressure;Samples;Min_cycle;Max_cycle;Signal;HPM_P1;HPM_P2
2022/09/15 00:00:43;;;;;;;24.00;9.18;;;16.60;99.90;;;16.67;100.00;100035.56;5226640;28;20060;-69
2022/09/15 00:03:15;;;;;;;26.83;10.48;;;16.50;99.90;;;16.65;100.00;100042.59;5226862;28;20151;-70
2022/09/15 00:05:48;;;;;;;22.98;9.57;;;16.50;99.90;;;16.62;100.00;100035.53;5228192;28;20056;-69
2022/09/15 00:08:20;;;;;;;21.13;9.18;;;16.50;99.90;;;16.62;100.00;100043.44;5226724;28;20056;-69
2022/09/15 00:10:57;;;;;;;23.67;8.90;;;16.50;99.90;;;16.60;100.00;100049.59;5227961;28;20044;-70
2022/09/15 00:13:29;;;;;;;22.33;9.48;;;16.50;99.90;;;16.61;100.00;100046.09;5228267;28;20454;-70
2022/09/15 00:16:04;;;;;;;19.83;8.25;;;16.50;99.90;;;16.60;100.00;100054.88;5226518;28;20826;-71
2022/09/15 00:18:38;;;;;;;20.02;8.38;;;16.50;99.90;;;16.58;100.00;100049.59;5227979;28;20102;-69
2022/09/15 00:21:16;;;;;;;18.58;7.93;;;16.50;99.90;;;16.59;100.00;100045.22;5227733;28;20048;-71
2022/09/15 00:23:49;;;;;;;27.73;10.55;;;16.50;99.90;;;16.58;100.00;100046.09;5228039;28;20048;-71
2022/09/15 00:26:26;;;;;;;19.75;8.48;;;16.50;99.90;;;16.57;100.00;100047.00;5228289;28;20044;-70
2022/09/15 00:29:00;;;;;;;17.95;7.88;;;16.40;99.90;;;16.53;100.00;100044.34;5228160;28;20074;-70
2022/09/15 00:31:33;;;;;;;19.70;8.07;;;16.40;99.90;;;16.54;100.00;100051.34;5226572;28;20560;-69
2022/09/15 00:34:11;;;;;;;20.02;7.70;;;16.40;99.90;;;16.55;100.00;100053.09;5226705;28;20049;-71
2022/09/15 00:36:46;;;;;;;20.10;8.55;;;16.40;99.90;;;16.52;100.00;100058.38;5226181;28;20049;-71
2022/09/15 00:39:19;;;;;;;20.35;7.97;;;16.40;99.90;;;16.51;100.00;100066.28;5227348;28;20413;-70
2022/09/15 00:41:51;;;;;;;16.92;7.65;;;16.40;99.90;;;16.51;100.00;100063.66;5227530;28;20497;-69
2022/09/15 00:44:52;;;;;;;21.00;8.32;;;16.40;99.90;;;16.53;100.00;100059.25;5227501;28;20041;-71
2022/09/15 00:47:29;;;;;;;16.35;7.13;;;16.40;99.90;;;16.52;100.00;100065.41;5227250;28;20103;-69
2022/09/15 00:50:07;;;;;;;16.17;6.90;;;16.40;99.90;;;16.52;100.00;100063.63;5225847;28;20523;-70
2022/09/15 00:52:44;;;;;;;19.90;7.82;;;16.40;99.90;;;16.47;100.00;100060.13;5227228;28;20049;-70
2022/09/15 00:55:22;;;;;;;17.60;6.72;;;16.40;99.90;;;16.44;100.00;100060.16;5227252;28;20438;-70
2022/09/15 00:58:00;;;;;;;15.30;5.72;;;16.30;99.90;;;16.45;100.00;100061.91;5225751;28;20048;-71
2022/09/15 01:00:33;;;;;;;13.35;6.03;;;16.30;99.90;;;16.45;100.00;100061.91;5226774;28;20040;-70
2022/09/15 01:03:07;;;;;;;17.90;6.00;;;16.30;99.90;;;16.47;100.00;100065.38;5226307;28;20047;-70
2022/09/15 01:05:45;;;;;;;14.85;6.25;;;16.30;99.90;;;16.46;100.00;100063.66;5225500;28;20049;-70
2022/09/15 01:08:25;;;;;;;15.68;6.43;;;16.40;99.90;;;16.44;100.00;100054.88;5225582;28;20497;-71
2022/09/15 01:10:57;;;;;;;17.23;7.13;;;16.40;99.90;;;16.42;100.00;100059.25;5226676;28;20047;-70
2022/09/15 01:13:30;;;;;;;16.80;7.03;;;16.30;99.90;;;16.39;100.00;100068.91;5226742;28;20047;-71
2022/09/15 01:16:10;;;;;;;17.80;6.78;;;16.30;99.90;;;16.38;100.00;100070.66;5225408;28;20053;-70
2022/09/15 01:18:59;;;;;;;16.90;6.70;;;16.30;99.90;;;16.38;100.00;100070.66;5226631;28;20383;-70
2022/09/15 01:21:41;;;;;;;14.18;6.15;;;16.30;99.90;;;16.38;100.00;100078.56;5225139;28;20524;-71
2022/09/15 01:24:42;;;;;;;17.95;7.28;;;16.30;99.90;;;16.37;100.00;100079.44;5226680;28;20116;-70
2022/09/15 01:28:16;;;;;;;16.17;6.28;;;16.30;99.90;;;16.35;100.00;100068.03;5226408;28;20071;-71
2022/09/15 01:30:56;;;;;;;14.32;5.80;;;16.30;99.90;;;16.34;100.00;100068.03;5162568;28;20056;-72
2022/09/15 01:33:37;;;;;;;15.93;6.72;;;16.20;99.90;;;16.31;100.00;100073.31;5347267;22;20037;-71
2022/09/15 01:36:14;;;;;;;16.73;6.75;;;16.20;99.90;;;16.26;100.00;100075.94;5209030;28;20053;-69
2022/09/15 01:38:59;;;;;;;13.93;5.85;;;16.10;99.90;;;16.24;100.00;100072.44;5205177;28;20048;-71
2022/09/15 01:41:38;;;;;;;14.30;5.35;;;16.10;99.90;;;16.24;100.00;100073.31;5185093;28;20042;-69
2022/09/15 01:44:14;;;;;;;15.13;5.90;;;16.10;99.90;;;16.25;100.00;100074.19;5184690;28;20502;-70
2022/09/15 01:46:52;;;;;;;16.17;6.32;;;16.10;99.90;;;16.24;100.00;100082.94;5184845;28;20069;-70
2022/09/15 01:49:30;;;;;;;13.13;5.88;;;16.10;99.90;;;16.26;100.00;100082.06;5183851;28;20124;-69
2022/09/15 01:52:03;;;;;;;13.25;5.72;;;16.10;99.90;;;16.25;100.00;100077.69;5185126;28;20041;-70
2022/09/15 01:54:40;;;;;;;14.48;5.20;;;16.10;99.90;;;16.27;100.00;100078.56;5183794;28;20418;-70
2022/09/15 01:57:12;;;;;;;14.65;6.13;;;16.10;99.90;;;16.27;100.00;100078.56;5184910;28;20056;-69
2022/09/15 01:59:45;;;;;;;12.73;5.78;;;16.10;99.90;;;16.27;100.00;100080.31;5184887;28;20505;-70
2022/09/15 02:02:22;;;;;;;13.25;5.57;;;16.10;99.90;;;16.27;100.00;100077.69;5183496;28;20046;-69
2022/09/15 02:05:00;;;;;;;13.25;5.55;;;16.10;99.90;;;16.23;100.00;100075.91;5185041;28;20518;-69
2022/09/15 02:07:44;;;;;;;17.35;6.82;;;16.00;99.90;;;16.19;100.00;100075.03;5183474;28;20042;-70
2022/09/15 02:10:26;;;;;;;12.13;5.53;;;16.00;99.90;;;16.19;100.00;100068.91;5184944;28;20038;-70
2022/09/15 02:13:06;;;;;;;15.20;6.47;;;16.00;99.90;;;16.17;100.00;100079.44;5183581;28;20049;-71
2022/09/15 02:15:45;;;;;;;13.73;6.38;;;16.00;99.90;;;16.16;100.00;100071.53;5185053;28;20054;-70
2022/09/15 02:18:33;;;;;;;14.88;6.30;;;16.00;99.90;;;16.15;100.00;100072.41;5184829;28;20053;-70
2022/09/15 02:21:12;;;;;;;15.45;6.00;;;15.90;99.90;;;16.12;100.00;100073.28;5184645;28;20489;-69
2022/09/15 02:23:55;;;;;;;14.45;6.28;;;16.00;99.90;;;16.15;100.00;100067.16;5183555;28;20054;-71
2022/09/15 02:26:29;;;;;;;14.98;6.93;;;16.00;99.90;;;16.16;100.00;100074.16;5183307;28;20529;-69
2022/09/15 02:29:06;;;;;;;14.63;6.68;;;16.00;99.90;;;16.16;100.00;100069.78;5184539;28;20049;-69
2022/09/15 02:31:40;;;;;;;13.80;6.25;;;16.00;99.90;;;16.19;100.00;100079.44;5184805;28;20491;-69
2022/09/15 02:34:17;;;;;;;16.25;6.38;;;16.00;99.90;;;16.22;100.00;100074.16;5184915;28;20041;-72
2022/09/15 02:36:52;;;;;;;16.40;6.43;;;16.00;99.90;;;16.24;100.00;100078.56;5184701;28;20121;-71
2022/09/15 02:39:31;;;;;;;13.43;6.00;;;16.00;99.90;;;16.26;100.00;100068.91;5183233;28;20050;-70
2022/09/15 02:42:03;;;;;;;13.23;6.05;;;16.10;99.90;;;16.27;100.00;100060.16;5184544;28;20153;-68
2022/09/15 02:44:35;;;;;;;12.13;5.32;;;16.10;99.90;;;16.27;100.00;100054.00;5183172;28;20064;-70
2022/09/15 02:47:08;;;;;;;16.10;7.00;;;16.10;99.90;;;16.27;100.00;100067.16;5184446;28;20096;-70
2022/09/15 02:49:41;;;;;;;17.77;7.38;;;16.10;99.90;;;16.22;100.00;100071.53;5183203;28;20081;-69
2022/09/15 02:52:14;;;;;;;18.95;7.85;;;16.00;99.90;;;16.17;100.00;100076.81;5184629;28;20041;-69
2022/09/15 02:54:46;;;;;;;16.00;7.75;;;16.00;99.90;;;16.12;100.00;100075.03;5183218;28;20054;-70
2022/09/15 02:57:19;;;;;;;18.35;8.02;;;16.00;99.90;;;16.09;100.00;100070.66;5184210;28;20046;-69
2022/09/15 03:02:43;;;;;;;15.20;7.15;;;15.90;99.90;;;16.05;100.00;100068.91;5183278;28;20541;-69
2022/09/15 03:05:20;;;;;;;17.50;7.35;;;15.90;99.90;;;16.06;100.00;100067.16;5184480;28;20049;-69
2022/09/15 03:07:53;;;;;;;13.80;6.18;;;15.90;99.90;;;16.06;100.00;100075.03;5183161;28;20391;-72
2022/09/15 03:10:26;;;;;;;15.18;6.30;;;15.90;99.90;;;16.06;100.00;100072.41;5182822;28;20050;-71
2022/09/15 03:12:58;;;;;;;13.57;5.70;;;15.90;99.90;;;16.05;100.00;100074.16;5184474;28;20042;-70
2022/09/15 03:15:30;;;;;;;15.38;7.45;;;15.90;99.90;;;16.00;100.00;100073.28;5184290;28;20491;-69
2022/09/15 03:18:02;;;;;;;15.65;6.45;;;15.90;99.90;;;15.95;100.00;100077.66;5182771;28;20045;-70
2022/09/15 03:20:36;;;;;;;14.90;6.30;;;15.80;99.90;;;15.90;100.00;100089.88;5184146;28;20402;-70
2022/09/15 03:23:08;;;;;;;16.45;7.20;;;15.80;99.90;;;15.85;100.00;100083.78;5184619;28;20052;-72
2022/09/15 03:25:40;;;;;;;15.63;6.72;;;15.70;99.90;;;15.83;100.00;100091.63;5186202;28;20054;-70
2022/09/15 03:28:12;;;;;;;14.48;5.28;;;15.70;99.90;;;15.78;100.00;100088.13;5186611;28;20524;-69
2022/09/15 03:30:46;;;;;;;15.40;6.55;;;15.70;99.90;;;15.74;100.00;100097.75;5187741;28;20538;-69
2022/09/15 03:33:19;;;;;;;13.70;6.00;;;15.60;99.90;;;15.71;100.00;100091.59;5186368;28;20056;-71
2022/09/15 03:35:53;;;;;;;11.70;5.63;;;15.60;99.90;;;15.68;100.00;100097.72;5187801;28;20645;-70
2022/09/15 03:38:26;;;;;;;11.73;5.45;;;15.50;99.90;;;15.64;100.00;100090.69;5186405;28;20049;-70
2022/09/15 03:41:01;;;;;;;12.88;5.10;;;15.50;99.90;;;15.61;100.00;100085.41;5187463;28;20046;-71
2022/09/15 03:43:35;;;;;;;11.88;5.43;;;15.50;99.90;;;15.57;100.00;100088.91;5187640;28;20046;-70
2022/09/15 03:46:08;;;;;;;13.45;5.32;;;15.40;99.90;;;15.55;100.00;100095.03;5187418;28;20054;-69
2022/09/15 03:48:41;;;;;;;10.50;4.82;;;15.40;99.90;;;15.52;100.00;100090.66;5187298;28;20133;-70
2022/09/15 03:51:14;;;;;;;12.77;5.15;;;15.40;99.90;;;15.48;100.00;100089.75;5186020;28;20136;-71
2022/09/15 03:53:46;;;;;;;11.15;4.97;;;15.40;99.90;;;15.44;100.00;100098.47;5187346;28;20089;-69
2022/09/15 03:56:23;;;;;;;9.93;4.80;;;15.30;99.90;;;15.41;100.00;100095.84;5185982;28;20057;-69
2022/09/15 03:58:55;;;;;;;11.18;5.13;;;15.30;99.90;;;15.38;100.00;100090.56;5187313;28;20048;-69
2022/09/15 04:01:28;;;;;;;12.52;5.80;;;15.30;99.90;;;15.34;100.00;100094.06;5186959;28;20053;-71
2022/09/15 04:04:01;;;;;;;9.85;4.60;;;15.20;99.90;;;15.30;100.00;100092.28;5187298;28;20050;-70
2022/09/15 04:06:35;;;;;;;10.45;4.53;;;15.20;99.90;;;15.27;100.00;100089.66;5187221;28;20052;-70
2022/09/15 04:09:07;;;;;;;12.60;5.18;;;15.20;99.90;;;15.24;100.00;100091.38;5187194;28;20045;-70
2022/09/15 04:11:41;;;;;;;10.93;4.72;;;15.10;99.90;;;15.20;100.00;100080.03;5187078;28;20463;-70
2022/09/15 04:14:14;;;;;;;11.18;5.38;;;15.10;99.90;;;15.17;100.00;100083.47;5187110;28;20092;-70
2022/09/15 04:16:46;;;;;;;11.10;4.85;;;15.10;99.90;;;15.15;100.00;100086.97;5187245;28;20046;-70
2022/09/15 04:19:19;;;;;;;10.77;4.65;;;15.00;99.90;;;15.13;100.00;100088.72;5186836;28;20052;-70
2022/09/15 04:21:52;;;;;;;10.23;4.60;;;15.00;99.90;;;15.11;100.00;100074.69;5186660;28;20046;-70
2022/09/15 04:24:24;;;;;;;12.82;5.28;;;15.00;99.90;;;15.11;100.00;100082.56;5186692;28;20521;-70
2022/09/15 04:26:56;;;;;;;12.13;4.70;;;15.00;99.90;;;15.10;100.00;100088.69;5185342;28;20056;-70
2022/09/15 04:29:28;;;;;;;11.27;4.97;;;15.00;99.90;;;15.08;100.00;100093.06;5186682;28;20537;-70
2022/09/15 04:32:00;;;;;;;11.60;5.65;;;14.90;99.90;;;15.05;100.00;100108.78;5186598;28;20053;-70
2022/09/15 04:34:32;;;;;;;11.55;5.00;;;14.90;99.90;;;15.01;100.00;100105.28;5185344;28;20064;-69
2022/09/15 04:37:06;;;;;;;12.05;5.45;;;14.90;99.90;;;15.00;100.00;100094.78;5185327;28;20042;-71
2022/09/15 04:39:38;;;;;;;9.45;3.90;;;14.90;99.90;;;15.02;100.00;100103.53;5186231;28;20076;-70
2022/09/15 04:42:10;;;;;;;12.05;4.95;;;14.80;99.90;;;15.04;100.00;100107.03;5186317;28;20041;-70
2022/09/15 04:44:42;;;;;;;12.77;4.78;;;14.90;99.90;;;15.04;100.00;100107.91;5185066;28;20052;-69
2022/09/15 04:47:15;;;;;;;13.25;5.50;;;14.90;99.90;;;15.05;100.00;100119.28;5186236;28;20049;-70
2022/09/15 04:49:47;;;;;;;12.80;5.60;;;14.90;99.90;;;15.06;100.00;100111.44;5186224;28;20042;-71
2022/09/15 04:52:21;;;;;;;11.75;4.90;;;14.90;99.90;;;15.06;100.00;100116.69;5186558;28;20034;-70
2022/09/15 04:54:53;;;;;;;11.38;5.30;;;14.90;99.90;;;15.06;100.00;100110.53;5186260;28;20045;-71
2022/09/15 04:57:25;;;;;;;13.40;5.70;;;14.90;99.90;;;15.06;100.00;100105.28;5186184;28;20130;-70
2022/09/15 04:59:57;;;;;;;11.15;4.82;;;14.90;99.90;;;15.05;100.00;100104.41;5186026;28;20046;-69
2022/09/15 05:02:29;;;;;;;10.02;4.30;;;14.90;99.90;;;15.04;100.00;100107.91;5185966;28;20046;-70
2022/09/15 05:05:01;;;;;;;10.30;4.38;;;14.90;99.90;;;15.03;100.00;100110.53;5186086;28;20518;-69
2022/09/15 05:07:37;;;;;;;10.32;4.70;;;14.90;99.90;;;15.03;100.00;100115.78;5185782;28;20049;-69
2022/09/15 05:10:10;;;;;;;11.80;4.95;;;14.90;99.90;;;15.02;100.00;100119.28;5185142;28;20042;-69
2022/09/15 05:12:42;;;;;;;9.98;4.93;;;14.90;99.90;;;15.01;100.00;100110.53;5185442;28;20046;-71
2022/09/15 05:15:14;;;;;;;10.82;4.82;;;14.90;99.90;;;15.00;100.00;100111.41;5185924;28;20038;-69
2022/09/15 05:17:46;;;;;;;16.50;5.97;;;14.80;99.90;;;15.01;100.00;100114.91;5185587;28;20046;-70
2022/09/15 05:20:18;;;;;;;12.57;5.47;;;14.80;99.90;;;15.02;100.00;100119.28;5184255;28;20410;-70
2022/09/15 05:22:52;;;;;;;11.82;5.22;;;14.90;99.90;;;15.03;100.00;100118.41;5185636;28;20048;-69
2022/09/15 05:25:24;;;;;;;13.18;5.60;;;14.90;99.90;;;15.06;100.00;100121.03;5185762;28;20042;-70
2022/09/15 05:27:56;;;;;;;14.00;5.13;;;14.90;99.90;;;15.09;100.00;100113.19;5185541;28;20046;-70
2022/09/15 05:30:28;;;;;;;14.05;5.68;;;14.90;99.90;;;15.11;100.00;100114.94;5185819;28;20379;-70
2022/09/15 05:33:00;;;;;;;12.90;5.80;;;15.00;99.90;;;15.15;100.00;100115.88;5185318;28;20046;-70
2022/09/15 05:35:32;;;;;;;16.60;6.05;;;15.00;99.90;;;15.17;100.00;100108.84;5185407;28;20046;-70
2022/09/15 05:38:05;;;;;;;13.93;5.50;;;15.00;99.90;;;15.19;100.00;100112.38;5185524;28;20046;-71
2022/09/15 05:40:38;;;;;;;11.80;5.47;;;15.10;99.90;;;15.22;100.00;100117.66;5184225;28;20072;-69
2022/09/15 05:43:13;;;;;;;11.75;5.45;;;15.10;99.90;;;15.26;100.00;100124.69;5185532;28;20038;-69
2022/09/15 05:45:53;;;;;;;12.70;5.15;;;15.10;99.90;;;15.31;100.00;100129.94;5186014;28;20482;-70
2022/09/15 05:48:26;;;;;;;11.27;5.35;;;15.20;99.90;;;15.33;100.00;100123.84;5185197;28;20046;-70
2022/09/15 05:50:58;;;;;;;11.63;5.20;;;15.20;99.90;;;15.37;100.00;100136.09;5185182;28;20041;-69
2022/09/15 05:53:34;;;;;;;11.57;5.32;;;15.20;99.90;;;15.41;100.00;100123.88;5185408;28;20399;-70
2022/09/15 05:56:10;;;;;;;10.38;4.90;;;15.20;99.90;;;15.45;100.00;100130.88;5183963;28;20050;-71
2022/09/15 05:58:45;;;;;;;10.10;4.63;;;15.30;99.90;;;15.48;100.00;100129.16;5185128;28;20107;-69
2022/09/15 06:01:19;;;;;;;10.63;4.88;;;15.30;99.90;;;15.52;100.00;100129.16;5184859;28;20038;-70
2022/09/15 06:03:52;;;;;;;10.85;5.05;;;15.30;99.90;;;15.56;100.00;100123.03;5184987;28;20414;-53
2022/09/15 06:06:26;;;;;;;11.30;4.88;;;15.40;99.90;;;15.59;100.00;100130.97;5183669;28;20046;-58
2022/09/15 06:09:00;;;;;;;11.90;5.20;;;15.40;99.90;;;15.64;100.00;100137.13;5184019;28;20056;-58
2022/09/15 06:11:33;;;;;;;11.63;4.88;;;15.50;99.90;;;15.68;100.00;100138.91;5184008;28;20065;-57
2022/09/15 06:14:05;;;;;;;10.55;4.40;;;15.50;99.90;;;15.72;100.00;100135.41;5183863;28;20054;-57
2022/09/15 06:16:37;;;;;;;10.48;4.53;;;15.50;99.90;;;15.77;100.00;100138.91;5183574;28;20396;-56
2022/09/15 06:19:10;;;;;;;14.02;5.40;;;15.60;99.90;;;15.83;100.00;100135.44;5183930;28;20499;-56
2022/09/15 06:21:42;;;;;;;11.52;5.40;;;15.60;99.90;;;15.86;100.00;100133.69;5184000;28;20046;-55
2022/09/15 06:24:15;;;;;;;11.93;4.97;;;15.70;99.90;;;15.89;100.00;100138.94;5182429;28;20050;-56
2022/09/15 06:26:47;;;;;;;10.75;4.78;;;15.70;99.90;;;15.92;100.00;100143.34;5182549;28;20044;-56
2022/09/15 06:29:19;;;;;;;12.80;4.90;;;15.70;99.90;;;15.97;100.00;100141.59;5183490;28;20502;-57
2022/09/15 06:31:51;;;;;;;11.93;5.07;;;15.80;99.90;;;16.00;100.00;100145.13;5183842;28;20048;-56
2022/09/15 06:34:24;;;;;;;13.07;4.88;;;15.80;99.90;;;16.02;100.00;100146.00;5183554;28;20557;-56
2022/09/15 06:36:56;;;;;;;11.95;5.30;;;15.80;99.90;;;16.08;100.00;100154.78;5183267;28;20049;-57
2022/09/15 06:39:29;;;;;;;11.40;4.68;;;15.90;99.90;;;16.10;100.00;100143.38;5183408;28;20056;-56
2022/09/15 06:42:01;;;;;;;12.27;5.40;;;15.90;99.90;;;16.09;100.00;100160.03;5183615;28;20048;-56
2022/09/15 06:44:34;;;;;;;14.60;5.90;;;15.90;99.90;;;16.06;100.00;100162.66;5183883;28;20446;-56
2022/09/15 06:47:06;;;;;;;16.67;6.53;;;15.90;99.90;;;16.03;100.00;100162.63;5183398;28;20080;-57
2022/09/15 06:49:38;;;;;;;11.43;3.40;;;15.90;99.90;;;16.09;100.00;100167.03;5183692;28;20049;-57
2022/09/15 06:52:10;;;;;;;9.50;4.20;;;15.90;99.90;;;16.47;100.00;100172.38;5183477;28;20048;-58
2022/09/15 06:54:44;;;;;;;12.45;5.20;;;16.30;99.90;;;16.82;100.00;100167.13;5183634;28;20049;-55
2022/09/15 06:57:16;;;;;;;11.93;5.00;;;16.70;99.90;;;16.85;100.00;100168.91;5183428;28;20049;-55
2022/09/15 06:59:48;;;;;;;16.52;6.47;;;16.80;99.90;;;16.76;100.00;100175.06;5184464;28;20117;-54
2022/09/15 07:02:20;;;;;;;15.63;5.82;;;16.70;99.90;;;16.62;100.00;100175.00;5187679;28;20038;-55
2022/09/15 07:04:52;;;;;;;15.15;6.63;;;16.60;99.90;;;16.51;100.00;100176.78;5187428;28;20056;-54
2022/09/15 07:07:24;;;;;;;12.35;5.70;;;16.50;99.90;;;16.48;100.00;100182.00;5187314;28;20406;-53
2022/09/15 07:09:59;;;;;;;13.70;5.25;;;16.40;99.90;;;16.46;100.00;100182.03;5187561;28;20409;-54
2022/09/15 07:12:32;;;;;;;13.15;6.10;;;16.30;99.90;;;16.47;100.00;100186.41;5187540;28;20053;-54
2022/09/15 07:15:05;;;;;;;12.40;5.63;;;16.30;99.90;;;16.44;100.00;100186.41;5187481;28;20045;-54
2022/09/15 07:17:37;;;;;;;14.85;6.30;;;16.30;99.90;;;16.42;100.00;100182.88;5187376;28;20046;-57
2022/09/15 07:20:10;;;;;;;13.57;5.20;;;16.30;99.90;;;16.43;100.00;100189.00;5187310;28;20129;-55
2022/09/15 07:22:43;;;;;;;14.77;6.85;;;16.30;99.90;;;16.44;100.00;100190.78;5187292;28;20038;-54
2022/09/15 07:25:16;;;;;;;14.82;6.32;;;16.30;99.90;;;16.47;100.00;100191.66;5187205;28;20124;-55
2022/09/15 07:27:48;;;;;;;12.88;5.82;;;16.30;99.90;;;16.54;100.00;100188.16;5186858;28;20050;-57
2022/09/15 07:30:20;;;;;;;14.77;6.93;;;16.30;99.90;;;16.65;100.00;100196.06;5187064;28;20045;-54
2022/09/15 07:32:52;;;;;;;12.93;6.28;;;16.40;99.90;;;16.75;100.00;100197.84;5187077;28;20050;-54
2022/09/15 07:35:25;;;;;;;12.65;6.32;;;16.50;99.90;;;16.88;100.00;100198.72;5187077;28;20501;-52
2022/09/15 07:37:57;;;;;;;12.65;6.35;;;16.60;99.90;;;16.99;100.00;100201.34;5186627;28;20038;-53
2022/09/15 07:40:30;;;;;;;15.90;7.57;;;16.70;99.90;;;17.06;100.00;100203.09;5186956;28;20396;-56
2022/09/15 07:43:03;;;;;;;15.70;6.75;;;16.80;99.90;;;17.16;100.00;100193.44;5187055;28;20144;-54
2022/09/15 07:45:36;;;;;;;19.13;7.35;;;16.80;99.90;;;17.29;100.00;100201.34;5186822;28;20050;-56
2022/09/15 07:48:08;;;;;;;17.15;7.90;;;16.90;99.90;;;17.44;100.00;100204.81;5186552;28;20422;-54
2022/09/15 07:50:40;;;;;;;21.27;9.85;;;17.00;99.90;;;17.76;100.00;100212.66;5186938;28;20066;-53
2022/09/15 07:53:12;;;;;;;23.15;10.13;;;17.30;99.90;;;18.06;100.00;100201.97;5186669;28;20129;-54
2022/09/15 07:55:45;;;;;;;20.55;9.93;;;17.50;99.90;;;18.29;100.00;100208.88;5185044;28;20057;-52
2022/09/15 07:58:18;;;;;;;22.80;10.85;;;17.70;99.90;;;18.46;100.00;100207.00;5186430;28;20557;-53
2022/09/15 08:00:50;;;;;;;26.70;11.82;;;17.90;99.90;;;18.56;100.00;100210.44;5186447;28;20494;-53
2022/09/15 08:03:23;;;;;;;18.48;9.88;;;18.00;99.90;;;18.63;100.00;100210.38;5186340;28;20065;-54
2022/09/15 08:05:58;;;;;;;17.25;9.20;;;18.10;99.90;;;18.79;100.00;100215.63;5186071;28;20052;-53
2022/09/15 08:08:31;;;;;;;15.93;8.48;;;18.20;99.90;;;18.83;100.00;100228.75;5186188;28;20130;-54
2022/09/15 08:11:07;;;;;;;19.90;9.25;;;18.30;99.90;;;18.76;100.00;100221.78;5185010;28;20111;-54
2022/09/15 08:13:39;;;;;;;18.35;9.13;;;18.30;99.90;;;18.55;100.00;100230.69;5186382;28;20042;-53
2022/09/15 08:16:13;;;;;;;18.08;9.98;;;18.20;99.90;;;18.40;100.00;100234.31;5186090;28;20042;-55
2022/09/15 08:18:46;;;;;;;17.08;8.68;;;18.00;99.90;;;18.37;100.00;100230.81;5186162;28;20053;-53
2022/09/15 08:21:21;;;;;;;14.43;7.60;;;18.00;99.90;;;18.42;100.00;100237.81;5186062;28;20088;-54
2022/09/15 08:23:55;;;;;;;15.70;7.43;;;18.00;99.90;;;18.53;100.00;100240.41;5185988;28;20064;-54
2022/09/15 08:26:29;;;;;;;17.88;8.18;;;18.10;99.90;;;18.55;100.00;100243.88;5185824;28;20084;-56
2022/09/15 08:29:01;;;;;;;;;;;18.10;99.90;;;18.53;100.00;100240.41;5186439;28;20411;-53
2022/09/15 08:31:33;;;;;;;12.98;6.47;;;18.10;99.90;;;18.57;100.00;100247.38;5185932;28;20023;-54
2022/09/15 08:34:06;;;;;;;12.88;6.68;;;18.10;99.90;;;18.58;100.00;100249.16;5184245;28;20144;-54
2022/09/15 08:36:38;;;;;;;12.10;6.63;;;18.20;99.90;;;18.53;100.00;100248.31;5185701;28;20104;-54
2022/09/15 08:39:11;;;;;;;13.00;6.72;;;18.10;99.90;;;18.49;100.00;100251.84;5185773;28;20048;-55
2022/09/15 08:41:47;;;;;;;12.63;7.03;;;18.10;99.90;;;18.49;100.00;100245.69;5185639;28;20077;-54
2022/09/15 08:44:33;;;;;;;15.63;8.32;;;18.10;99.90;;;18.41;100.00;100241.34;5185676;28;20127;-55
2022/09/15 08:47:13;;;;;;;14.07;8.07;;;18.10;99.90;;;18.36;100.00;100256.31;5185457;28;20049;-52
2022/09/15 08:49:59;;;;;;;16.98;8.52;;;18.00;99.90;;;18.40;100.00;100262.47;5185468;28;20477;-54
2022/09/15 08:52:39;;;;;;;13.95;7.88;;;18.00;99.90;;;18.43;100.00;100265.06;5185536;28;20038;-53
2022/09/15 08:55:19;;;;;;;12.65;6.97;;;18.10;99.90;;;18.43;100.00;100270.34;5185325;28;20125;-54
2022/09/15 08:57:54;;;;;;;13.68;8.15;;;18.00;99.90;;;18.54;100.00;100272.94;5183916;28;20053;-54
2022/09/15 09:00:27;;;;;;;12.27;7.60;;;18.10;99.90;;;18.63;100.00;100276.38;5185375;28;20046;-53
2022/09/15 09:03:32;;;;;;;13.35;7.13;;;18.20;99.90;;;18.82;100.00;100268.38;5185210;28;20046;-54
2022/09/15 09:06:14;;;;;;;12.77;7.22;;;18.30;99.90;;;18.93;100.00;100274.47;5184865;28;20410;-54
2022/09/15 09:09:08;;;;;;;12.95;7.75;;;18.40;99.90;;;19.00;100.00;100275.28;5183790;28;20050;-54
2022/09/15 09:12:19;;;;;;;10.65;6.28;;;18.50;99.90;;;19.03;100.00;100281.41;5185021;28;20061;-54
2022/09/15 09:15:11;;;;;;;13.55;7.60;;;18.60;99.90;;;19.00;100.00;100284.09;5185466;28;20056;-55
2022/09/15 09:18:22;;;;;;;10.18;6.47;;;18.60;99.90;;;18.97;100.00;100286.75;5185424;28;20065;-54
2022/09/15 09:21:03;;;;;;;11.02;6.30;;;18.60;99.90;;;18.99;100.00;100287.63;5185023;28;20041;-55
2022/09/15 09:23:45;;;;;;;12.65;6.93;;;18.60;99.90;;;19.11;100.00;100292.81;5184459;28;20045;-54
2022/09/15 09:26:17;;;;;;;12.70;7.40;;;18.60;99.90;;;19.30;100.00;100288.25;5184518;28;20087;-54
2022/09/15 09:28:56;;;;;;;10.85;6.85;;;18.80;99.90;;;19.44;100.00;100296.06;5185340;28;20107;-53
2022/09/15 09:31:30;;;;;;;13.35;7.45;;;18.90;99.90;;;19.47;100.00;100290.72;5184902;28;20134;-53
2022/09/15 09:34:14;;;;;;;13.10;7.63;;;19.00;99.90;;;19.44;100.00;100301.34;5184594;28;20148;-55
2022/09/15 09:36:46;;;;;;;12.55;7.50;;;19.10;99.90;;;19.48;100.00;100298.63;5184367;28;20050;-54
2022/09/15 09:39:18;;;;;;;12.13;7.70;;;19.00;99.90;;;19.47;100.00;100298.66;5185221;28;20134;-53
2022/09/15 09:41:50;;;;;;;14.35;8.60;;;19.00;99.90;;;19.41;100.00;100294.31;5185742;28;20061;-54
2022/09/15 09:44:30;;;;;;;13.30;8.35;;;19.00;99.90;;;19.48;100.00;100289.84;5185647;28;20502;-53
2022/09/15 09:47:04;;;;;;;11.55;7.55;;;19.10;99.90;;;19.48;100.00;100297.75;5184467;28;20049;-54
2022/09/15 09:49:42;;;;;;;11.98;7.15;;;19.00;99.90;;;19.35;100.00;100298.78;5184940;28;20052;-54
2022/09/15 09:52:32;;;;;;;12.57;7.63;;;19.00;99.90;;;19.22;100.00;100301.50;5185479;28;20052;-54
2022/09/15 09:55:21;;;;;;;11.98;7.57;;;18.90;99.90;;;19.06;100.00;100297.25;5185102;28;20494;-54
2022/09/15 09:57:54;;;;;;;9.30;6.75;;;18.80;99.90;;;18.98;100.00;100304.38;5184910;28;20422;-52
2022/09/15 10:00:35;;;;;;;9.98;6.80;;;18.70;99.90;;;18.96;100.00;100301.72;5184483;28;20042;-53
2022/09/15 10:03:15;;;;;;;11.23;7.28;;;18.70;99.90;;;19.00;100.00;100305.22;5184067;28;20042;-55
2022/09/15 10:06:04;;;;;;;10.95;7.15;;;18.70;99.90;;;19.09;100.00;100294.56;5183993;28;20046;-53
2022/09/15 10:08:37;;;;;;;13.95;7.82;;;18.70;99.90;;;19.19;100.00;100295.41;5182962;28;20042;-52
2022/09/15 10:11:10;;;;;;;11.30;7.10;;;18.80;99.90;;;19.26;100.00;100299.72;5184297;28;20045;-54
2022/09/15 10:13:53;;;;;;;11.10;7.50;;;18.80;99.90;;;19.23;100.00;100297.09;5184254;28;20490;-55
2022/09/15 10:16:26;;;;;;;9.45;7.15;;;18.80;99.90;;;19.17;100.00;100303.34;5183919;28;20046;-53
2022/09/15 10:18:59;;;;;;;10.00;6.50;;;18.80;99.90;;;19.17;100.00;100298.06;5184224;28;20056;-53
2022/09/15 10:21:31;;;;;;;12.05;6.57;;;18.80;99.90;;;19.19;100.00;100298.03;5183975;28;20053;-53
2022/09/15 10:24:28;;;;;;;9.77;5.32;;;18.80;99.90;;;19.18;100.00;100302.44;5184408;28;20042;-53
2022/09/15 10:27:20;;;;;;;7.68;5.53;;;18.80;99.90;;;19.24;100.00;100302.41;5183753;28;20050;-53
2022/09/15 10:29:52;;;;;;;7.70;4.97;;;18.80;99.90;;;19.33;100.00;100297.91;5184003;28;20034;-54
2022/09/15 10:32:28;;;;;;;6.43;4.60;;;18.90;99.90;;;19.37;100.00;100299.66;5182648;28;20415;-53
2022/09/15 10:35:10;;;;;;;7.68;4.95;;;18.90;99.90;;;19.41;100.00;100293.44;5185391;28;20049;-53
2022/09/15 10:37:58;;;;;;;6.95;4.18;;;19.00;99.90;;;19.41;100.00;100290.78;5188100;28;20502;-52